sensor_id;sensor_type;location;lat;lon;timestamp;temperature;humidity
11559;DHT22;5835;42.930;25.178;2024-03-23T00:54:23;2.10;99.90
11559;DHT22;5835;42.930;25.178;2024-03-23T00:56:50;2.10;99.90
11559;DHT22;5835;42.930;25.178;2024-03-23T00:59:17;2.10;99.90
11559;DHT22;5835;42.930;25.178;2024-03-23T01:01:43;2.20;99.90
11559;DHT22;5835;42.930;25.178;2024-03-23T01:04:11;2.20;99.90
11559;DHT22;5835;42.930;25.178;2024-03-23T01:06:37;2.10;99.90
11559;DHT22;5835;42.930;25.178;2024-03-23T01:09:06;2.10;99.90
11559;DHT22;5835;42.930;25.178;2024-03-23T01:11:35;1.90;99.90
11559;DHT22;5835;42.930;25.178;2024-03-23T01:14:03;1.70;99.90
11559;DHT22;5835;42.930;25.178;2024-03-23T01:16:29;1.70;99.90
11559;DHT22;5835;42.930;25.178;2024-03-23T01:18:57;1.60;99.90
11559;DHT22;5835;42.930;25.178;2024-03-23T01:21:23;1.70;99.90
11559;DHT22;5835;42.930;25.178;2024-03-23T01:24:00;1.80;99.90
11559;DHT22;5835;42.930;25.178;2024-03-23T01:26:27;1.80;99.90
11559;DHT22;5835;42.930;25.178;2024-03-23T01:28:55;1.60;99.90
11559;DHT22;5835;42.930;25.178;2024-03-23T01:31:21;1.60;99.90
11559;DHT22;5835;42.930;25.178;2024-03-23T01:33:48;1.60;99.90
11559;DHT22;5835;42.930;25.178;2024-03-23T01:36:15;1.60;99.90
11559;DHT22;5835;42.930;25.178;2024-03-23T01:38:42;1.50;99.90
11559;DHT22;5835;42.930;25.178;2024-03-23T01:41:09;1.50;99.90
11559;DHT22;5835;42.930;25.178;2024-03-23T01:43:38;1.50;99.90
11559;DHT22;5835;42.930;25.178;2024-03-23T01:46:04;1.40;99.90
11559;DHT22;5835;42.930;25.178;2024-03-23T01:48:32;1.30;1.00
11559;DHT22;5835;42.930;25.178;2024-03-23T01:50:58;1.30;13.70
11559;DHT22;5835;42.930;25.178;2024-03-23T01:53:26;1.30;99.90
11559;DHT22;5835;42.930;25.178;2024-03-23T01:55:53;1.50;1.00
11559;DHT22;5835;42.930;25.178;2024-03-23T01:58:21;1.50;1.00
11559;DHT22;5835;42.930;25.178;2024-03-23T02:00:48;1.20;99.90
11559;DHT22;5835;42.930;25.178;2024-03-23T02:03:22;1.00;99.90
11559;DHT22;5835;42.930;25.178;2024-03-23T02:05:50;0.90;99.90
11559;DHT22;5835;42.930;25.178;2024-03-23T02:08:18;0.80;99.90
11559;DHT22;5835;42.930;25.178;2024-03-23T02:10:46;0.90;99.90
11559;DHT22;5835;42.930;25.178;2024-03-23T02:13:14;0.90;99.90
11559;DHT22;5835;42.930;25.178;2024-03-23T02:15:40;1.00;99.90
11559;DHT22;5835;42.930;25.178;2024-03-23T02:18:09;0.90;99.90
11559;DHT22;5835;42.930;25.178;2024-03-23T02:20:36;0.90;99.90
11559;DHT22;5835;42.930;25.178;2024-03-23T02:23:06;1.00;99.90
11559;DHT22;5835;42.930;25.178;2024-03-23T02:25:38;1.10;99.90
11559;DHT22;5835;42.930;25.178;2024-03-23T02:28:06;1.20;79.10
11559;DHT22;5835;42.930;25.178;2024-03-23T02:30:33;1.00;73.70
11559;DHT22;5835;42.930;25.178;2024-03-23T02:33:00;0.80;92.70
11559;DHT22;5835;42.930;25.178;2024-03-23T02:35:26;0.70;99.90
11559;DHT22;5835;42.930;25.178;2024-03-23T02:37:54;0.70;1.00
11559;DHT22;5835;42.930;25.178;2024-03-23T02:40:23;0.70;1.00
11559;DHT22;5835;42.930;25.178;2024-03-23T02:42:51;0.60;1.00
11559;DHT22;5835;42.930;25.178;2024-03-23T02:45:18;0.60;1.00
11559;DHT22;5835;42.930;25.178;2024-03-23T02:47:45;0.50;66.50
11559;DHT22;5835;42.930;25.178;2024-03-23T02:50:12;0.30;99.90
11559;DHT22;5835;42.930;25.178;2024-03-23T02:52:41;0.50;1.00
11559;DHT22;5835;42.930;25.178;2024-03-23T02:55:08;0.70;1.00
11559;DHT22;5835;42.930;25.178;2024-03-23T02:57:37;0.70;1.00
11559;DHT22;5835;42.930;25.178;2024-03-23T03:00:05;0.80;1.00
11559;DHT22;5835;42.930;25.178;2024-03-23T03:02:33;0.80;99.90
11559;DHT22;5835;42.930;25.178;2024-03-23T03:04:59;0.80;99.90
11559;DHT22;5835;42.930;25.178;2024-03-23T03:07:27;0.70;99.90
11559;DHT22;5835;42.930;25.178;2024-03-23T03:09:53;0.70;99.90
11559;DHT22;5835;42.930;25.178;2024-03-23T03:12:21;0.80;99.90
11559;DHT22;5835;42.930;25.178;2024-03-23T03:14:48;0.50;99.90
11559;DHT22;5835;42.930;25.178;2024-03-23T03:17:16;0.30;99.90
11559;DHT22;5835;42.930;25.178;2024-03-23T03:19:42;0.20;1.00
11559;DHT22;5835;42.930;25.178;2024-03-23T03:22:11;0.40;1.00
11559;DHT22;5835;42.930;25.178;2024-03-23T03:24:37;0.40;1.00
11559;DHT22;5835;42.930;25.178;2024-03-23T03:27:05;0.40;1.00
11559;DHT22;5835;42.930;25.178;2024-03-23T03:29:32;0.40;1.00
11559;DHT22;5835;42.930;25.178;2024-03-23T03:32:04;0.20;1.00
11559;DHT22;5835;42.930;25.178;2024-03-23T03:34:30;0.20;99.90
11559;DHT22;5835;42.930;25.178;2024-03-23T03:36:57;0.30;99.90
11559;DHT22;5835;42.930;25.178;2024-03-23T03:39:24;0.20;99.90
11559;DHT22;5835;42.930;25.178;2024-03-23T03:41:52;0.40;99.90
11559;DHT22;5835;42.930;25.178;2024-03-23T03:44:19;0.40;1.00
11559;DHT22;5835;42.930;25.178;2024-03-23T03:46:46;0.20;1.00
11559;DHT22;5835;42.930;25.178;2024-03-23T03:49:14;0.20;99.90
11559;DHT22;5835;42.930;25.178;2024-03-23T03:51:41;0.10;99.90
11559;DHT22;5835;42.930;25.178;2024-03-23T03:54:08;0.20;1.00
11559;DHT22;5835;42.930;25.178;2024-03-23T03:56:35;0.00;99.90
11559;DHT22;5835;42.930;25.178;2024-03-23T03:59:01;-0.10;1.00
11559;DHT22;5835;42.930;25.178;2024-03-23T04:01:29;0.00;99.90
11559;DHT22;5835;42.930;25.178;2024-03-23T04:03:56;0.00;99.90
11559;DHT22;5835;42.930;25.178;2024-03-23T04:06:25;0.30;1.00
11559;DHT22;5835;42.930;25.178;2024-03-23T04:08:51;0.60;1.00
11559;DHT22;5835;42.930;25.178;2024-03-23T04:11:18;0.60;99.90
11559;DHT22;5835;42.930;25.178;2024-03-23T04:13:44;0.20;1.00
11559;DHT22;5835;42.930;25.178;2024-03-23T04:16:12;-0.10;1.00
11559;DHT22;5835;42.930;25.178;2024-03-23T04:18:38;-0.20;1.00
11559;DHT22;5835;42.930;25.178;2024-03-23T04:21:06;-0.10;1.00
11559;DHT22;5835;42.930;25.178;2024-03-23T04:23:34;0.00;99.90
11559;DHT22;5835;42.930;25.178;2024-03-23T04:26:05;-0.10;37.40
11559;DHT22;5835;42.930;25.178;2024-03-23T04:28:31;-0.20;2.50
11559;DHT22;5835;42.930;25.178;2024-03-23T04:31:03;0.00;99.90
11559;DHT22;5835;42.930;25.178;2024-03-23T04:33:29;0.10;12.10
11559;DHT22;5835;42.930;25.178;2024-03-23T04:35:57;0.10;1.00
11559;DHT22;5835;42.930;25.178;2024-03-23T04:38:23;0.00;1.00
11559;DHT22;5835;42.930;25.178;2024-03-23T04:40:55;-0.10;1.00
11559;DHT22;5835;42.930;25.178;2024-03-23T04:43:23;-0.20;99.90
11559;DHT22;5835;42.930;25.178;2024-03-23T04:45:50;-0.10;99.90
11559;DHT22;5835;42.930;25.178;2024-03-23T04:48:20;0.00;99.90
11559;DHT22;5835;42.930;25.178;2024-03-23T04:50:48;0.00;1.00
11559;DHT22;5835;42.930;25.178;2024-03-23T04:53:16;0.10;1.00
11559;DHT22;5835;42.930;25.178;2024-03-23T04:55:44;0.00;99.90
11559;DHT22;5835;42.930;25.178;2024-03-23T04:58:13;0.00;1.00
11559;DHT22;5835;42.930;25.178;2024-03-23T05:00:39;0.10;1.00
11559;DHT22;5835;42.930;25.178;2024-03-23T05:03:07;0.20;1.00
11559;DHT22;5835;42.930;25.178;2024-03-23T05:05:33;0.40;1.00
11559;DHT22;5835;42.930;25.178;2024-03-23T05:08:01;0.50;99.90
11559;DHT22;5835;42.930;25.178;2024-03-23T05:10:27;0.50;99.90
11559;DHT22;5835;42.930;25.178;2024-03-23T05:12:55;0.50;99.90
11559;DHT22;5835;42.930;25.178;2024-03-23T05:15:23;0.60;99.90
11559;DHT22;5835;42.930;25.178;2024-03-23T05:17:51;0.70;1.00
11559;DHT22;5835;42.930;25.178;2024-03-23T05:20:20;0.70;1.00
11559;DHT22;5835;42.930;25.178;2024-03-23T05:22:46;0.80;99.90
11559;DHT22;5835;42.930;25.178;2024-03-23T05:25:13;0.80;99.90
11559;DHT22;5835;42.930;25.178;2024-03-23T05:27:40;0.70;99.90
11559;DHT22;5835;42.930;25.178;2024-03-23T05:30:08;0.70;99.90
11559;DHT22;5835;42.930;25.178;2024-03-23T05:32:36;0.70;98.00
11559;DHT22;5835;42.930;25.178;2024-03-23T05:35:07;0.70;1.00
11559;DHT22;5835;42.930;25.178;2024-03-23T05:37:33;0.90;99.90
11559;DHT22;5835;42.930;25.178;2024-03-23T05:40:01;1.10;1.00
11559;DHT22;5835;42.930;25.178;2024-03-23T05:42:29;1.20;99.90
11559;DHT22;5835;42.930;25.178;2024-03-23T05:44:56;1.30;1.00
11559;DHT22;5835;42.930;25.178;2024-03-23T05:47:23;1.50;99.90
11559;DHT22;5835;42.930;25.178;2024-03-23T05:49:52;1.80;1.00
11559;DHT22;5835;42.930;25.178;2024-03-23T05:52:18;2.00;99.90
11559;DHT22;5835;42.930;25.178;2024-03-23T05:54:47;2.10;99.90
11559;DHT22;5835;42.930;25.178;2024-03-23T05:57:13;2.10;99.90
11559;DHT22;5835;42.930;25.178;2024-03-23T05:59:40;2.20;33.90
11559;DHT22;5835;42.930;25.178;2024-03-23T06:02:07;2.20;1.00
11559;DHT22;5835;42.930;25.178;2024-03-23T06:04:36;2.10;4.40
11559;DHT22;5835;42.930;25.178;2024-03-23T06:07:05;2.10;1.00
11559;DHT22;5835;42.930;25.178;2024-03-23T06:09:32;2.30;44.30
11559;DHT22;5835;42.930;25.178;2024-03-23T06:11:59;2.60;36.80
11559;DHT22;5835;42.930;25.178;2024-03-23T06:14:26;2.60;1.00
11559;DHT22;5835;42.930;25.178;2024-03-23T06:16:54;2.60;34.10
11559;DHT22;5835;42.930;25.178;2024-03-23T06:19:21;2.80;95.50
11559;DHT22;5835;42.930;25.178;2024-03-23T06:21:48;3.00;99.90
11559;DHT22;5835;42.930;25.178;2024-03-23T06:24:16;3.20;16.00
11559;DHT22;5835;42.930;25.178;2024-03-23T06:26:43;3.30;1.00
11559;DHT22;5835;42.930;25.178;2024-03-23T06:29:10;3.40;1.00
11559;DHT22;5835;42.930;25.178;2024-03-23T06:31:37;3.40;1.00
11559;DHT22;5835;42.930;25.178;2024-03-23T06:34:05;3.40;1.00
11559;DHT22;5835;42.930;25.178;2024-03-23T06:36:31;3.40;1.00
11559;DHT22;5835;42.930;25.178;2024-03-23T06:38:58;3.50;1.00
11559;DHT22;5835;42.930;25.178;2024-03-23T06:41:26;3.60;1.00
11559;DHT22;5835;42.930;25.178;2024-03-23T06:43:54;3.80;1.00
11559;DHT22;5835;42.930;25.178;2024-03-23T06:46:20;3.90;1.00
11559;DHT22;5835;42.930;25.178;2024-03-23T06:48:48;4.10;1.00
11559;DHT22;5835;42.930;25.178;2024-03-23T06:51:14;4.20;1.00
11559;DHT22;5835;42.930;25.178;2024-03-23T06:53:41;4.40;1.00
11559;DHT22;5835;42.930;25.178;2024-03-23T06:56:08;4.40;1.00
11559;DHT22;5835;42.930;25.178;2024-03-23T06:58:37;4.60;1.00
11559;DHT22;5835;42.930;25.178;2024-03-23T07:01:03;4.70;1.00
11559;DHT22;5835;42.930;25.178;2024-03-23T07:03:31;4.70;1.00
11559;DHT22;5835;42.930;25.178;2024-03-23T07:05:58;5.00;1.00
11559;DHT22;5835;42.930;25.178;2024-03-23T07:08:25;5.20;1.00
11559;DHT22;5835;42.930;25.178;2024-03-23T07:10:52;5.40;99.90
11559;DHT22;5835;42.930;25.178;2024-03-23T07:13:19;5.50;99.90
11559;DHT22;5835;42.930;25.178;2024-03-23T07:15:53;5.60;99.90
11559;DHT22;5835;42.930;25.178;2024-03-23T07:18:21;5.70;99.90
11559;DHT22;5835;42.930;25.178;2024-03-23T07:20:53;6.00;99.90
11559;DHT22;5835;42.930;25.178;2024-03-23T07:23:22;6.10;99.90
11559;DHT22;5835;42.930;25.178;2024-03-23T07:25:57;6.20;95.50
11559;DHT22;5835;42.930;25.178;2024-03-23T07:28:24;6.60;63.80
11559;DHT22;5835;42.930;25.178;2024-03-23T07:31:03;6.90;10.40
11559;DHT22;5835;42.930;25.178;2024-03-23T07:33:30;6.90;1.00
11559;DHT22;5835;42.930;25.178;2024-03-23T07:35:57;7.20;1.00
11559;DHT22;5835;42.930;25.178;2024-03-23T07:38:26;7.40;1.00
11559;DHT22;5835;42.930;25.178;2024-03-23T07:40:57;7.70;1.00
11559;DHT22;5835;42.930;25.178;2024-03-23T07:43:29;8.00;1.00
11559;DHT22;5835;42.930;25.178;2024-03-23T07:45:55;8.10;1.00
11559;DHT22;5835;42.930;25.178;2024-03-23T07:48:24;8.30;1.00
11559;DHT22;5835;42.930;25.178;2024-03-23T07:51:01;8.30;1.00
11559;DHT22;5835;42.930;25.178;2024-03-23T07:53:30;8.50;1.00
11559;DHT22;5835;42.930;25.178;2024-03-23T07:55:57;8.70;1.00
11559;DHT22;5835;42.930;25.178;2024-03-23T07:58:25;9.00;1.00
11559;DHT22;5835;42.930;25.178;2024-03-23T08:00:52;9.00;1.00
11559;DHT22;5835;42.930;25.178;2024-03-23T08:03:20;9.20;1.00
11559;DHT22;5835;42.930;25.178;2024-03-23T08:05:48;9.50;1.00
11559;DHT22;5835;42.930;25.178;2024-03-23T08:08:15;9.90;1.00
11559;DHT22;5835;42.930;25.178;2024-03-23T08:10:49;9.90;99.90
11559;DHT22;5835;42.930;25.178;2024-03-23T08:13:17;10.10;99.90
11559;DHT22;5835;42.930;25.178;2024-03-23T08:15:44;10.40;99.90
11559;DHT22;5835;42.930;25.178;2024-03-23T08:18:12;10.60;99.90
11559;DHT22;5835;42.930;25.178;2024-03-23T08:20:39;10.80;99.90
11559;DHT22;5835;42.930;25.178;2024-03-23T08:23:08;11.00;99.90
11559;DHT22;5835;42.930;25.178;2024-03-23T08:25:34;11.30;99.90
11559;DHT22;5835;42.930;25.178;2024-03-23T08:28:02;11.70;99.90
11559;DHT22;5835;42.930;25.178;2024-03-23T08:30:29;11.70;99.90
11559;DHT22;5835;42.930;25.178;2024-03-23T08:32:56;11.90;99.90
11559;DHT22;5835;42.930;25.178;2024-03-23T08:35:22;12.00;99.90
11559;DHT22;5835;42.930;25.178;2024-03-23T08:37:50;12.20;99.90
11559;DHT22;5835;42.930;25.178;2024-03-23T08:40:18;12.40;99.90
11559;DHT22;5835;42.930;25.178;2024-03-23T08:42:45;12.30;99.90
11559;DHT22;5835;42.930;25.178;2024-03-23T08:45:12;12.50;99.90
11559;DHT22;5835;42.930;25.178;2024-03-23T08:47:39;12.60;99.90
11559;DHT22;5835;42.930;25.178;2024-03-23T08:50:06;12.60;99.90
11559;DHT22;5835;42.930;25.178;2024-03-23T08:52:33;12.80;99.90
11559;DHT22;5835;42.930;25.178;2024-03-23T08:55:00;13.00;99.90
11559;DHT22;5835;42.930;25.178;2024-03-23T08:57:29;13.10;99.90
11559;DHT22;5835;42.930;25.178;2024-03-23T08:59:56;13.30;99.90
11559;DHT22;5835;42.930;25.178;2024-03-23T09:02:23;13.60;99.90
11559;DHT22;5835;42.930;25.178;2024-03-23T09:04:50;13.80;99.90
11559;DHT22;5835;42.930;25.178;2024-03-23T09:07:17;13.90;99.90
11559;DHT22;5835;42.930;25.178;2024-03-23T09:09:44;13.90;99.90
11559;DHT22;5835;42.930;25.178;2024-03-23T09:12:11;14.20;99.90
11559;DHT22;5835;42.930;25.178;2024-03-23T09:14:39;14.40;99.90
11559;DHT22;5835;42.930;25.178;2024-03-23T09:17:06;14.40;99.90
11559;DHT22;5835;42.930;25.178;2024-03-23T09:19:34;14.50;99.90
11559;DHT22;5835;42.930;25.178;2024-03-23T09:22:01;14.80;99.90
11559;DHT22;5835;42.930;25.178;2024-03-23T09:24:28;14.70;99.90
11559;DHT22;5835;42.930;25.178;2024-03-23T09:26:55;14.70;99.90
11559;DHT22;5835;42.930;25.178;2024-03-23T09:29:22;14.90;99.90
11559;DHT22;5835;42.930;25.178;2024-03-23T09:31:51;15.10;99.90
11559;DHT22;5835;42.930;25.178;2024-03-23T09:34:17;15.20;99.90
11559;DHT22;5835;42.930;25.178;2024-03-23T09:36:44;15.20;99.90
11559;DHT22;5835;42.930;25.178;2024-03-23T09:39:11;15.30;99.90
11559;DHT22;5835;42.930;25.178;2024-03-23T09:41:39;15.20;99.90
11559;DHT22;5835;42.930;25.178;2024-03-23T09:44:07;15.60;99.90
11559;DHT22;5835;42.930;25.178;2024-03-23T09:46:35;15.70;99.90
11559;DHT22;5835;42.930;25.178;2024-03-23T09:49:03;15.70;99.90
11559;DHT22;5835;42.930;25.178;2024-03-23T09:51:32;15.90;99.90
11559;DHT22;5835;42.930;25.178;2024-03-23T09:53:58;15.80;99.90
11559;DHT22;5835;42.930;25.178;2024-03-23T09:56:26;16.20;99.90
11559;DHT22;5835;42.930;25.178;2024-03-23T09:59:00;16.10;99.90
11559;DHT22;5835;42.930;25.178;2024-03-23T10:01:30;16.10;99.90
11559;DHT22;5835;42.930;25.178;2024-03-23T10:03:56;16.20;99.90
11559;DHT22;5835;42.930;25.178;2024-03-23T10:06:25;16.50;99.90
11559;DHT22;5835;42.930;25.178;2024-03-23T10:08:52;16.70;99.90
11559;DHT22;5835;42.930;25.178;2024-03-23T10:11:20;16.40;99.90
11559;DHT22;5835;42.930;25.178;2024-03-23T10:13:47;16.30;99.90
11559;DHT22;5835;42.930;25.178;2024-03-23T10:16:22;16.30;99.90
11559;DHT22;5835;42.930;25.178;2024-03-23T10:18:49;16.70;99.90
11559;DHT22;5835;42.930;25.178;2024-03-23T10:21:17;16.70;99.90
11559;DHT22;5835;42.930;25.178;2024-03-23T10:23:45;16.40;99.90
11559;DHT22;5835;42.930;25.178;2024-03-23T10:26:19;16.50;99.90
11559;DHT22;5835;42.930;25.178;2024-03-23T10:28:54;16.60;99.90
11559;DHT22;5835;42.930;25.178;2024-03-23T10:31:22;16.70;99.90
11559;DHT22;5835;42.930;25.178;2024-03-23T10:33:49;17.00;99.90
11559;DHT22;5835;42.930;25.178;2024-03-23T10:36:20;17.00;99.90
11559;DHT22;5835;42.930;25.178;2024-03-23T10:38:49;17.10;99.90
11559;DHT22;5835;42.930;25.178;2024-03-23T10:41:17;16.90;99.90
11559;DHT22;5835;42.930;25.178;2024-03-23T10:43:45;16.90;99.90
11559;DHT22;5835;42.930;25.178;2024-03-23T10:46:13;17.00;99.90
11559;DHT22;5835;42.930;25.178;2024-03-23T10:48:39;17.10;99.90
11559;DHT22;5835;42.930;25.178;2024-03-23T10:51:08;17.70;99.90
11559;DHT22;5835;42.930;25.178;2024-03-23T10:53:35;17.80;99.90
11559;DHT22;5835;42.930;25.178;2024-03-23T10:56:05;17.40;99.90
11559;DHT22;5835;42.930;25.178;2024-03-23T10:58:37;17.50;99.90
11559;DHT22;5835;42.930;25.178;2024-03-23T11:01:05;17.50;99.90
11559;DHT22;5835;42.930;25.178;2024-03-23T11:03:33;17.40;99.90
11559;DHT22;5835;42.930;25.178;2024-03-23T11:06:00;17.70;99.90
11559;DHT22;5835;42.930;25.178;2024-03-23T11:08:34;17.70;99.90
11559;DHT22;5835;42.930;25.178;2024-03-23T11:11:18;17.40;99.90
11559;DHT22;5835;42.930;25.178;2024-03-23T11:13:47;17.40;99.90
11559;DHT22;5835;42.930;25.178;2024-03-23T11:16:16;17.30;99.90
11559;DHT22;5835;42.930;25.178;2024-03-23T11:18:43;17.00;99.90
11559;DHT22;5835;42.930;25.178;2024-03-23T11:21:11;17.30;99.90
11559;DHT22;5835;42.930;25.178;2024-03-23T11:24:15;17.50;99.90
11559;DHT22;5835;42.930;25.178;2024-03-23T11:26:44;17.60;99.90
11559;DHT22;5835;42.930;25.178;2024-03-23T11:29:10;17.70;99.90
11559;DHT22;5835;42.930;25.178;2024-03-23T11:31:38;17.70;99.90
11559;DHT22;5835;42.930;25.178;2024-03-23T11:34:05;17.60;99.90
11559;DHT22;5835;42.930;25.178;2024-03-23T11:36:32;17.70;99.90
11559;DHT22;5835;42.930;25.178;2024-03-23T11:38:59;17.60;99.90
11559;DHT22;5835;42.930;25.178;2024-03-23T11:41:47;17.80;99.90
11559;DHT22;5835;42.930;25.178;2024-03-23T11:44:17;17.70;99.90
11559;DHT22;5835;42.930;25.178;2024-03-23T11:46:45;18.10;99.90
11559;DHT22;5835;42.930;25.178;2024-03-23T11:49:22;17.90;99.90
11559;DHT22;5835;42.930;25.178;2024-03-23T11:51:49;17.80;99.90
11559;DHT22;5835;42.930;25.178;2024-03-23T11:54:16;18.00;99.90
11559;DHT22;5835;42.930;25.178;2024-03-23T11:56:56;18.20;99.90
11559;DHT22;5835;42.930;25.178;2024-03-23T11:59:33;17.90;99.90
11559;DHT22;5835;42.930;25.178;2024-03-23T12:02:07;18.20;99.90
11559;DHT22;5835;42.930;25.178;2024-03-23T12:04:34;18.30;99.90
11559;DHT22;5835;42.930;25.178;2024-03-23T12:07:12;18.50;99.90
11559;DHT22;5835;42.930;25.178;2024-03-23T12:09:39;18.40;99.90
11559;DHT22;5835;42.930;25.178;2024-03-23T12:12:13;18.60;99.90
11559;DHT22;5835;42.930;25.178;2024-03-23T12:14:41;18.60;99.90
11559;DHT22;5835;42.930;25.178;2024-03-23T12:17:10;18.70;99.90
11559;DHT22;5835;42.930;25.178;2024-03-23T12:19:36;18.40;99.90
11559;DHT22;5835;42.930;25.178;2024-03-23T12:22:04;18.70;99.90
11559;DHT22;5835;42.930;25.178;2024-03-23T12:24:31;19.40;99.90
11559;DHT22;5835;42.930;25.178;2024-03-23T12:27:03;20.00;99.90
11559;DHT22;5835;42.930;25.178;2024-03-23T12:29:32;19.70;99.90
11559;DHT22;5835;42.930;25.178;2024-03-23T12:32:00;18.80;99.90
11559;DHT22;5835;42.930;25.178;2024-03-23T12:34:27;18.90;99.90
11559;DHT22;5835;42.930;25.178;2024-03-23T12:36:56;19.10;99.90
11559;DHT22;5835;42.930;25.178;2024-03-23T12:39:22;20.70;99.90
11559;DHT22;5835;42.930;25.178;2024-03-23T12:41:50;20.90;99.90
11559;DHT22;5835;42.930;25.178;2024-03-23T12:44:18;20.50;99.90
11559;DHT22;5835;42.930;25.178;2024-03-23T12:46:48;19.80;99.90
11559;DHT22;5835;42.930;25.178;2024-03-23T12:49:14;19.50;99.90
11559;DHT22;5835;42.930;25.178;2024-03-23T12:51:47;19.60;99.90
11559;DHT22;5835;42.930;25.178;2024-03-23T12:54:14;19.50;98.90
11559;DHT22;5835;42.930;25.178;2024-03-23T12:56:42;19.50;96.70
11559;DHT22;5835;42.930;25.178;2024-03-23T12:59:08;20.20;99.90
11559;DHT22;5835;42.930;25.178;2024-03-23T13:01:36;19.80;98.70
11559;DHT22;5835;42.930;25.178;2024-03-23T13:04:04;19.60;90.70
11559;DHT22;5835;42.930;25.178;2024-03-23T13:06:31;19.70;90.50
11559;DHT22;5835;42.930;25.178;2024-03-23T13:09:00;19.70;89.10
11559;DHT22;5835;42.930;25.178;2024-03-23T13:11:27;19.60;82.00
11559;DHT22;5835;42.930;25.178;2024-03-23T13:13:54;19.90;88.80
11559;DHT22;5835;42.930;25.178;2024-03-23T13:16:22;20.20;91.20
11559;DHT22;5835;42.930;25.178;2024-03-23T13:18:50;21.20;99.90
11559;DHT22;5835;42.930;25.178;2024-03-23T13:21:19;21.90;99.90
11559;DHT22;5835;42.930;25.178;2024-03-23T13:23:47;21.80;99.90
11559;DHT22;5835;42.930;25.178;2024-03-23T13:26:16;21.50;99.90
11559;DHT22;5835;42.930;25.178;2024-03-23T13:28:43;21.50;99.90
11559;DHT22;5835;42.930;25.178;2024-03-23T13:31:11;21.90;99.90
11559;DHT22;5835;42.930;25.178;2024-03-23T13:33:37;22.50;99.90
11559;DHT22;5835;42.930;25.178;2024-03-23T13:36:06;21.90;99.80
11559;DHT22;5835;42.930;25.178;2024-03-23T13:38:34;21.00;85.20
11559;DHT22;5835;42.930;25.178;2024-03-23T13:41:01;20.20;59.60
11559;DHT22;5835;42.930;25.178;2024-03-23T13:43:30;20.10;52.10
11559;DHT22;5835;42.930;25.178;2024-03-23T13:45:58;20.40;54.90
11559;DHT22;5835;42.930;25.178;2024-03-23T13:48:27;20.40;53.80
11559;DHT22;5835;42.930;25.178;2024-03-23T13:50:58;20.30;49.00
11559;DHT22;5835;42.930;25.178;2024-03-23T13:53:24;20.10;41.80
11559;DHT22;5835;42.930;25.178;2024-03-23T13:55:53;20.20;41.40
11559;DHT22;5835;42.930;25.178;2024-03-23T13:58:20;20.10;39.30
11559;DHT22;5835;42.930;25.178;2024-03-23T14:00:49;20.70;47.00
11559;DHT22;5835;42.930;25.178;2024-03-23T14:03:16;20.80;48.10
11559;DHT22;5835;42.930;25.178;2024-03-23T14:05:44;20.60;39.60
11559;DHT22;5835;42.930;25.178;2024-03-23T14:08:11;20.70;42.40
11559;DHT22;5835;42.930;25.178;2024-03-23T14:10:41;20.90;42.90
11559;DHT22;5835;42.930;25.178;2024-03-23T14:13:09;20.70;36.10
11559;DHT22;5835;42.930;25.178;2024-03-23T14:15:36;20.60;29.90
11559;DHT22;5835;42.930;25.178;2024-03-23T14:18:03;20.90;35.90
11559;DHT22;5835;42.930;25.178;2024-03-23T14:20:31;21.10;39.80
11559;DHT22;5835;42.930;25.178;2024-03-23T14:22:58;21.10;35.80
11559;DHT22;5835;42.930;25.178;2024-03-23T14:25:25;21.30;32.00
11559;DHT22;5835;42.930;25.178;2024-03-23T14:27:55;21.30;31.90
11559;DHT22;5835;42.930;25.178;2024-03-23T14:30:23;21.50;33.00
11559;DHT22;5835;42.930;25.178;2024-03-23T14:32:50;21.90;43.70
11559;DHT22;5835;42.930;25.178;2024-03-23T14:35:17;21.80;41.00
11559;DHT22;5835;42.930;25.178;2024-03-23T14:37:44;21.80;32.70
11559;DHT22;5835;42.930;25.178;2024-03-23T14:40:13;22.30;38.80
11559;DHT22;5835;42.930;25.178;2024-03-23T14:42:40;22.40;40.20
11559;DHT22;5835;42.930;25.178;2024-03-23T14:45:08;22.50;39.50
11559;DHT22;5835;42.930;25.178;2024-03-23T14:47:38;22.60;41.30
11559;DHT22;5835;42.930;25.178;2024-03-23T14:50:05;22.30;31.60
11559;DHT22;5835;42.930;25.178;2024-03-23T14:52:34;22.00;26.30
11559;DHT22;5835;42.930;25.178;2024-03-23T14:55:00;22.30;36.80
11559;DHT22;5835;42.930;25.178;2024-03-23T14:57:28;23.10;38.30
11559;DHT22;5835;42.930;25.178;2024-03-23T14:59:55;23.10;38.50
11559;DHT22;5835;42.930;25.178;2024-03-23T15:02:23;22.40;24.90
11559;DHT22;5835;42.930;25.178;2024-03-23T15:04:51;22.00;17.00
11559;DHT22;5835;42.930;25.178;2024-03-23T15:07:20;22.40;21.00
11559;DHT22;5835;42.930;25.178;2024-03-23T15:09:46;22.60;21.40
11559;DHT22;5835;42.930;25.178;2024-03-23T15:12:14;23.10;28.50
11559;DHT22;5835;42.930;25.178;2024-03-23T15:14:40;22.80;27.80
11559;DHT22;5835;42.930;25.178;2024-03-23T15:17:07;22.10;16.30
11559;DHT22;5835;42.930;25.178;2024-03-23T15:19:34;21.70;9.00
11559;DHT22;5835;42.930;25.178;2024-03-23T15:22:04;21.40;2.00
11559;DHT22;5835;42.930;25.178;2024-03-23T15:24:30;21.40;1.00
11559;DHT22;5835;42.930;25.178;2024-03-23T15:26:58;21.20;1.00
11559;DHT22;5835;42.930;25.178;2024-03-23T15:29:24;21.00;1.00
11559;DHT22;5835;42.930;25.178;2024-03-23T15:31:52;21.10;1.00
11559;DHT22;5835;42.930;25.178;2024-03-23T15:34:18;21.10;1.00
11559;DHT22;5835;42.930;25.178;2024-03-23T15:36:47;21.10;2.60
11559;DHT22;5835;42.930;25.178;2024-03-23T15:39:16;21.10;1.00
11559;DHT22;5835;42.930;25.178;2024-03-23T15:41:45;20.80;1.00
11559;DHT22;5835;42.930;25.178;2024-03-23T15:44:11;20.60;1.00
11559;DHT22;5835;42.930;25.178;2024-03-23T15:46:41;20.50;1.00
11559;DHT22;5835;42.930;25.178;2024-03-23T15:49:07;20.40;1.00
11559;DHT22;5835;42.930;25.178;2024-03-23T15:51:35;20.70;1.00
11559;DHT22;5835;42.930;25.178;2024-03-23T15:54:03;20.50;1.00
11559;DHT22;5835;42.930;25.178;2024-03-23T15:56:32;20.40;1.00
11559;DHT22;5835;42.930;25.178;2024-03-23T15:58:58;19.90;1.00
11559;DHT22;5835;42.930;25.178;2024-03-23T16:01:31;19.60;1.00
11559;DHT22;5835;42.930;25.178;2024-03-23T16:03:59;19.40;1.00
11559;DHT22;5835;42.930;25.178;2024-03-23T16:06:27;19.10;1.00
11559;DHT22;5835;42.930;25.178;2024-03-23T16:08:53;18.90;1.00
11559;DHT22;5835;42.930;25.178;2024-03-23T16:11:21;18.70;1.00
11559;DHT22;5835;42.930;25.178;2024-03-23T16:13:48;18.50;1.00
11559;DHT22;5835;42.930;25.178;2024-03-23T16:16:16;18.30;1.00
11559;DHT22;5835;42.930;25.178;2024-03-23T16:18:42;18.30;1.00
11559;DHT22;5835;42.930;25.178;2024-03-23T16:21:11;18.10;1.00
11559;DHT22;5835;42.930;25.178;2024-03-23T16:23:38;17.90;1.00
11559;DHT22;5835;42.930;25.178;2024-03-23T16:26:07;17.50;1.00
11559;DHT22;5835;42.930;25.178;2024-03-23T16:28:34;17.20;1.00
11559;DHT22;5835;42.930;25.178;2024-03-23T16:31:04;16.90;1.00
11559;DHT22;5835;42.930;25.178;2024-03-23T16:33:32;16.70;1.00
11559;DHT22;5835;42.930;25.178;2024-03-23T16:36:00;16.50;1.00
11559;DHT22;5835;42.930;25.178;2024-03-23T16:38:27;16.30;1.00
11559;DHT22;5835;42.930;25.178;2024-03-23T16:40:57;16.20;1.00